Time,TemperatureF,DewpointF,PressureIn,WindDirection,WindDirectionDegrees,WindSpeedMPH,WindSpeedGustMPH,Humidity,HourlyPrecipIn,Conditions,Clouds,dailyrainin,SoftwareType,DateUTC
2013-04-04 00:02:00,55.2,35.4,30.09,WSW,245,5.0,9.0,47,0.00,,,0.00,meteohub,2013-04-04 07:02:00,
2013-04-04 00:12:00,55.0,34.2,30.09,ESE,117,3.0,10.0,45,0.00,,,0.00,meteohub,2013-04-04 07:12:00,
2013-04-04 00:17:00,55.0,34.2,30.09,ESE,122,3.0,10.0,45,0.00,,,0.00,meteohub,2013-04-04 07:17:00,
2013-04-04 00:27:00,54.9,32.7,30.09,West,262,2.0,11.0,43,0.00,,,0.00,meteohub,2013-04-04 07:27:00,
2013-04-04 00:37:00,54.7,31.5,30.09,ESE,103,2.0,8.0,41,0.00,,,0.00,meteohub,2013-04-04 07:37:00,
2013-04-04 00:42:00,54.7,32.5,30.09,ESE,107,2.0,9.0,43,0.00,,,0.00,meteohub,2013-04-04 07:42:00,
2013-04-04 00:47:00,54.7,31.5,30.09,SSW,200,1.0,9.0,41,0.00,,,0.00,meteohub,2013-04-04 07:47:00,
2013-04-04 00:57:00,54.7,31.5,30.09,SE,143,8.0,9.0,41,0.00,,,0.00,meteohub,2013-04-04 07:57:00,
2013-04-04 01:02:00,54.7,32.0,30.09,SW,226,5.0,12.0,42,0.00,,,0.00,meteohub,2013-04-04 08:02:00,
2013-04-04 01:07:00,54.7,32.5,30.09,SSW,197,2.0,12.0,43,0.00,,,0.00,meteohub,2013-04-04 08:07:00,
2013-04-04 01:12:00,55.0,34.2,30.09,SSE,148,6.0,12.0,45,0.00,,,0.00,meteohub,2013-04-04 08:12:00,
2013-04-04 01:17:00,55.0,34.2,30.09,SE,143,6.0,12.0,45,0.00,,,0.00,meteohub,2013-04-04 08:17:00,
2013-04-04 01:22:00,55.0,34.7,30.08,ESE,120,4.0,12.0,46,0.00,,,0.00,meteohub,2013-04-04 08:22:00,
2013-04-04 01:27:00,55.0,34.7,30.08,SE,141,2.0,11.0,46,0.00,,,0.00,meteohub,2013-04-04 08:27:00,
2013-04-04 01:32:00,55.0,34.2,30.08,SW,222,1.0,11.0,45,0.00,,,0.00,meteohub,2013-04-04 08:32:00,
2013-04-04 01:37:00,55.0,33.4,30.08,SE,126,2.0,9.0,44,0.00,,,0.00,meteohub,2013-04-04 08:37:00,
2013-04-04 01:42:00,54.7,31.5,30.08,ESE,109,4.0,9.0,41,0.00,,,0.00,meteohub,2013-04-04 08:42:00,
2013-04-04 01:52:00,54.1,30.4,30.08,South,174,2.0,6.0,40,0.00,,,0.00,meteohub,2013-04-04 08:52:00,
2013-04-04 01:57:00,54.0,31.5,30.08,SSW,202,1.0,5.0,42,0.00,,,0.00,meteohub,2013-04-04 08:57:00,
2013-04-04 02:02:00,54.0,32.0,30.08,SSE,162,2.0,5.0,43,0.00,,,0.00,meteohub,2013-04-04 09:02:00,
2013-04-04 02:07:00,53.8,30.6,30.08,SE,141,1.0,5.0,41,0.00,,,0.00,meteohub,2013-04-04 09:07:00,
2013-04-04 02:17:00,53.4,30.9,30.07,ESE,110,1.0,5.0,42,0.00,,,0.00,meteohub,2013-04-04 09:17:00,
2013-04-04 02:22:00,53.4,31.5,30.07,South,174,1.0,5.0,43,0.00,,,0.00,meteohub,2013-04-04 09:22:00,
2013-04-04 02:27:00,53.8,32.4,30.06,SE,127,3.0,7.0,44,0.00,,,0.00,meteohub,2013-04-04 09:27:00,
2013-04-04 02:37:00,53.8,32.9,30.06,SSW,195,2.0,7.0,45,0.00,,,0.00,meteohub,2013-04-04 09:37:00,
2013-04-04 02:42:00,54.0,33.6,30.06,SE,132,4.0,8.0,46,0.00,,,0.00,meteohub,2013-04-04 09:42:00,
2013-04-04 02:47:00,54.3,33.4,30.06,ESE,113,4.0,10.0,45,0.00,,,0.00,meteohub,2013-04-04 09:47:00,
2013-04-04 02:52:00,54.3,32.9,30.06,East,101,2.0,11.0,44,0.00,,,0.00,meteohub,2013-04-04 09:52:00,
2013-04-04 02:57:00,54.3,33.4,30.06,SE,143,8.0,11.0,45,0.00,,,0.00,meteohub,2013-04-04 09:57:00,
2013-04-04 03:07:00,55.2,31.3,30.05,SSW,193,5.0,9.0,40,0.00,,,0.00,meteohub,2013-04-04 10:07:00,
2013-04-04 03:12:00,55.2,31.3,30.05,ESE,112,2.0,11.0,40,0.00,,,0.00,meteohub,2013-04-04 10:12:00,
2013-04-04 03:17:00,55.2,31.3,30.05,SE,127,3.0,11.0,40,0.00,,,0.00,meteohub,2013-04-04 10:17:00,
2013-04-04 03:22:00,55.4,30.2,30.05,NNW,330,4.0,10.0,38,0.00,,,0.00,meteohub,2013-04-04 10:22:00,
2013-04-04 03:27:00,55.6,30.4,30.05,SE,136,1.0,10.0,38,0.00,,,0.00,meteohub,2013-04-04 10:27:00,
2013-04-04 03:32:00,55.2,30.0,30.04,WSW,240,3.0,9.0,38,0.00,,,0.00,meteohub,2013-04-04 10:32:00,
2013-04-04 03:37:00,55.2,30.7,30.04,SW,224,2.0,9.0,39,0.00,,,0.00,meteohub,2013-04-04 10:37:00,
2013-04-04 03:47:00,54.3,30.6,30.04,ESE,113,5.0,12.0,40,0.00,,,0.00,meteohub,2013-04-04 10:47:00,
2013-04-04 03:52:00,54.1,29.7,30.04,ESE,117,8.0,12.0,39,0.00,,,0.00,meteohub,2013-04-04 10:52:00,
2013-04-04 03:57:00,53.8,29.5,30.04,SSE,148,4.0,11.0,39,0.00,,,0.00,meteohub,2013-04-04 10:57:00,
2013-04-04 04:07:00,53.4,29.7,30.04,SE,146,3.0,10.0,40,0.00,,,0.00,meteohub,2013-04-04 11:07:00,
2013-04-04 04:12:00,53.8,30.0,30.04,SE,133,3.0,10.0,40,0.00,,,0.00,meteohub,2013-04-04 11:12:00,
2013-04-04 04:17:00,54.0,30.2,30.03,South,190,3.0,11.0,40,0.00,,,0.00,meteohub,2013-04-04 11:17:00,
2013-04-04 04:27:00,52.9,30.4,30.04,SSE,158,3.0,11.0,42,0.00,,,0.00,meteohub,2013-04-04 11:27:00,
2013-04-04 04:37:00,52.2,30.4,30.04,SE,129,3.0,11.0,43,0.00,,,0.00,meteohub,2013-04-04 11:37:00,
2013-04-04 04:42:00,52.5,30.7,30.03,SSE,150,9.0,9.0,43,0.00,,,0.00,meteohub,2013-04-04 11:42:00,
2013-04-04 04:47:00,53.1,30.6,30.03,SSW,207,2.0,10.0,42,0.00,,,0.00,meteohub,2013-04-04 11:47:00,
2013-04-04 04:57:00,54.3,29.3,30.03,South,180,3.0,14.0,38,0.00,,,0.00,meteohub,2013-04-04 11:57:00,
2013-04-04 05:02:00,54.9,29.1,30.03,SSW,194,3.0,14.0,37,0.00,,,0.00,meteohub,2013-04-04 12:02:00,
2013-04-04 05:07:00,54.5,30.0,30.02,East,101,2.0,11.0,39,0.00,,,0.00,meteohub,2013-04-04 12:07:00,
2013-04-04 05:12:00,54.0,30.2,30.03,SSE,154,2.0,11.0,40,0.00,,,0.00,meteohub,2013-04-04 12:12:00,
2013-04-04 05:17:00,53.8,30.6,30.02,South,180,4.0,12.0,41,0.00,,,0.00,meteohub,2013-04-04 12:17:00,
2013-04-04 05:27:00,53.2,29.5,30.03,SSE,168,7.0,12.0,40,0.00,,,0.00,meteohub,2013-04-04 12:27:00,
2013-04-04 05:32:00,53.8,29.5,30.03,South,187,3.0,14.0,39,0.00,,,0.00,meteohub,2013-04-04 12:32:00,
2013-04-04 05:37:00,54.3,29.3,30.03,SE,133,4.0,14.0,38,0.00,,,0.00,meteohub,2013-04-04 12:37:00,
2013-04-04 05:42:00,54.7,29.5,30.03,East,101,9.0,14.0,38,0.00,,,0.00,meteohub,2013-04-04 12:42:00,
2013-04-04 05:52:00,54.9,29.7,30.03,South,188,3.0,10.0,38,0.00,,,0.00,meteohub,2013-04-04 12:52:00,
2013-04-04 05:57:00,53.8,30.6,30.03,East,79,2.0,10.0,41,0.00,,,0.00,meteohub,2013-04-04 12:57:00,
2013-04-04 06:02:00,53.1,30.0,30.03,SE,134,3.0,10.0,41,0.00,,,0.00,meteohub,2013-04-04 13:02:00,
2013-04-04 06:07:00,53.6,29.8,30.02,SSE,166,4.0,10.0,40,0.00,,,0.00,meteohub,2013-04-04 13:07:00,
2013-04-04 06:12:00,54.1,29.1,30.03,SSE,167,9.0,10.0,38,0.00,,,0.00,meteohub,2013-04-04 13:12:00,
2013-04-04 06:17:00,54.7,29.5,30.02,SSW,210,1.0,11.0,38,0.00,,,0.00,meteohub,2013-04-04 13:17:00,
2013-04-04 06:22:00,54.9,28.4,30.02,SSE,155,4.0,11.0,36,0.00,,,0.00,meteohub,2013-04-04 13:22:00,
2013-04-04 06:27:00,55.0,27.9,30.02,ESE,122,1.0,11.0,35,0.00,,,0.00,meteohub,2013-04-04 13:27:00,
2013-04-04 06:32:00,54.9,27.7,30.02,SSE,158,5.0,11.0,35,0.00,,,0.00,meteohub,2013-04-04 13:32:00,
2013-04-04 06:42:00,55.2,28.0,30.03,ESE,117,5.0,13.0,35,0.00,,,0.00,meteohub,2013-04-04 13:42:00,
2013-04-04 06:52:00,54.1,29.7,30.03,SE,124,3.0,10.0,39,0.00,,,0.00,meteohub,2013-04-04 13:52:00,
2013-04-04 07:02:00,54.1,30.4,30.03,ENE,76,8.0,9.0,40,0.00,,,0.00,meteohub,2013-04-04 14:02:00,
2013-04-04 07:07:00,54.1,30.9,30.03,South,172,4.0,9.0,41,0.00,,,0.00,meteohub,2013-04-04 14:07:00,
2013-04-04 07:12:00,53.8,31.3,30.03,East,84,3.0,11.0,42,0.00,,,0.00,meteohub,2013-04-04 14:12:00,
2013-04-04 07:17:00,53.8,31.3,30.03,SE,124,4.0,12.0,42,0.00,,,0.00,meteohub,2013-04-04 14:17:00,
2013-04-04 07:27:00,54.7,30.9,30.03,SSE,153,7.0,12.0,40,0.00,,,0.00,meteohub,2013-04-04 14:27:00,
2013-04-04 07:37:00,55.2,31.3,30.04,SE,145,7.0,12.0,40,0.00,,,0.00,meteohub,2013-04-04 14:37:00,
2013-04-04 07:42:00,55.2,31.3,30.04,SSE,155,4.0,12.0,40,0.00,,,0.00,meteohub,2013-04-04 14:42:00,
2013-04-04 07:47:00,55.8,31.8,30.04,SE,145,10.0,12.0,40,0.00,,,0.00,meteohub,2013-04-04 14:47:00,
2013-04-04 07:57:00,56.1,31.5,30.04,SSE,158,8.0,12.0,39,0.00,,,0.00,meteohub,2013-04-04 14:57:00,
2013-04-04 08:02:00,56.1,31.5,30.04,SSE,160,3.0,12.0,39,0.00,,,0.00,meteohub,2013-04-04 15:02:00,
2013-04-04 08:12:00,56.8,31.5,30.04,SSE,153,5.0,13.0,38,0.00,,,0.00,meteohub,2013-04-04 15:12:00,
2013-04-04 08:22:00,57.9,33.1,30.04,SW,214,3.0,15.0,39,0.00,,,0.00,meteohub,2013-04-04 15:22:00,
2013-04-04 08:27:00,58.3,32.7,30.04,ESE,120,8.0,15.0,38,0.00,,,0.00,meteohub,2013-04-04 15:27:00,
2013-04-04 08:32:00,58.3,32.7,30.04,SSE,153,3.0,13.0,38,0.00,,,0.00,meteohub,2013-04-04 15:32:00,
2013-04-04 08:42:00,58.3,33.4,30.04,ESE,117,1.0,13.0,39,0.00,,,0.00,meteohub,2013-04-04 15:42:00,
2013-04-04 08:47:00,58.5,33.6,30.04,SE,131,4.0,12.0,39,0.00,,,0.00,meteohub,2013-04-04 15:47:00,
2013-04-04 08:57:00,58.6,35.1,30.04,SW,230,3.0,12.0,41,0.00,,,0.00,meteohub,2013-04-04 15:57:00,
2013-04-04 09:02:00,58.5,35.4,30.04,South,176,4.0,11.0,42,0.00,,,0.00,meteohub,2013-04-04 16:02:00,
2013-04-04 09:07:00,57.9,34.9,30.04,SSE,166,5.0,15.0,42,0.00,,,0.00,meteohub,2013-04-04 16:07:00,
2013-04-04 09:17:00,57.4,35.1,30.04,South,185,5.0,13.0,43,0.00,,,0.00,meteohub,2013-04-04 16:17:00,
2013-04-04 09:22:00,56.8,35.8,30.04,SSW,193,8.0,13.0,45,0.00,,,0.00,meteohub,2013-04-04 16:22:00,
2013-04-04 09:32:00,57.4,35.6,30.04,SE,138,2.0,14.0,44,0.00,,,0.00,meteohub,2013-04-04 16:32:00,
2013-04-04 09:37:00,57.9,34.9,30.04,SW,228,3.0,14.0,42,0.00,,,0.00,meteohub,2013-04-04 16:37:00,
2013-04-04 09:42:00,57.6,35.2,30.05,SSE,155,5.0,14.0,43,0.00,,,0.00,meteohub,2013-04-04 16:42:00,
2013-04-04 09:47:00,57.6,35.2,30.05,SSE,165,7.0,13.0,43,0.00,,,0.00,meteohub,2013-04-04 16:47:00,
2013-04-04 09:52:00,57.7,34.9,30.05,SE,144,5.0,13.0,42,0.00,,,0.00,meteohub,2013-04-04 16:52:00,
2013-04-04 09:57:00,58.3,37.0,30.05,SSE,163,9.0,13.0,45,0.00,,,0.00,meteohub,2013-04-04 16:57:00,
2013-04-04 10:07:00,58.5,37.8,30.05,East,101,7.0,14.0,46,0.00,,,0.00,meteohub,2013-04-04 17:07:00,
2013-04-04 10:12:00,58.3,37.0,30.05,SSE,150,3.0,16.0,45,0.00,,,0.00,meteohub,2013-04-04 17:12:00,
2013-04-04 10:22:00,58.8,37.0,30.05,SE,125,11.0,16.0,44,0.00,,,0.00,meteohub,2013-04-04 17:22:00,
2013-04-04 10:27:00,58.8,37.0,30.05,South,191,6.0,16.0,44,0.00,,,0.00,meteohub,2013-04-04 17:27:00,
2013-04-04 10:37:00,59.2,36.7,30.05,South,184,5.0,14.0,43,0.00,,,0.00,meteohub,2013-04-04 17:37:00,
2013-04-04 10:42:00,58.8,37.6,30.05,SE,136,2.0,15.0,45,0.00,,,0.00,meteohub,2013-04-04 17:42:00,
2013-04-04 10:47:00,58.5,37.8,30.06,ESE,110,6.0,15.0,46,0.00,,,0.00,meteohub,2013-04-04 17:47:00,
2013-04-04 10:52:00,58.8,37.0,30.05,SE,132,6.0,15.0,44,0.00,,,0.00,meteohub,2013-04-04 17:52:00,
2013-04-04 11:02:00,59.4,33.8,30.05,South,191,6.0,13.0,38,0.00,,,0.00,meteohub,2013-04-04 18:02:00,
2013-04-04 11:07:00,59.7,35.4,30.05,East,83,5.0,12.0,40,0.00,,,0.00,meteohub,2013-04-04 18:07:00,
2013-04-04 11:12:00,60.6,33.4,30.05,East,96,13.0,13.0,36,0.00,,,0.00,meteohub,2013-04-04 18:12:00,
2013-04-04 11:22:00,60.4,34.7,30.06,WSW,238,1.0,13.0,38,0.00,,,0.00,meteohub,2013-04-04 18:22:00,
2013-04-04 11:27:00,61.0,34.5,30.06,SSW,193,4.0,13.0,37,0.00,,,0.00,meteohub,2013-04-04 18:27:00,
2013-04-04 11:32:00,61.2,36.7,30.06,SW,231,4.0,11.0,40,0.00,,,0.00,meteohub,2013-04-04 18:32:00,
2013-04-04 11:37:00,61.7,37.8,30.05,SSW,212,7.0,10.0,41,0.00,,,0.00,meteohub,2013-04-04 18:37:00,
2013-04-04 11:47:00,61.2,40.3,30.06,SE,131,2.0,9.0,46,0.00,,,0.00,meteohub,2013-04-04 18:47:00,
2013-04-04 11:57:00,61.2,40.3,30.05,SE,138,3.0,13.0,46,0.00,,,0.00,meteohub,2013-04-04 18:57:00,
2013-04-04 12:02:00,60.6,38.7,30.05,SSW,198,2.0,10.0,44,0.00,,,0.00,meteohub,2013-04-04 19:02:00,
2013-04-04 12:07:00,60.6,39.7,30.06,NE,41,2.0,10.0,46,0.00,,,0.00,meteohub,2013-04-04 19:07:00,
2013-04-04 12:12:00,60.4,39.0,30.06,SSE,148,6.0,13.0,45,0.00,,,0.00,meteohub,2013-04-04 19:12:00,
2013-04-04 12:17:00,60.6,39.7,30.06,SE,141,6.0,13.0,46,0.00,,,0.00,meteohub,2013-04-04 19:17:00,
2013-04-04 12:27:00,60.8,39.4,30.05,SW,221,4.0,12.0,45,0.00,,,0.00,meteohub,2013-04-04 19:27:00,
2013-04-04 12:32:00,61.3,36.9,30.05,SSE,150,5.0,9.0,40,0.00,,,0.00,meteohub,2013-04-04 19:32:00,
2013-04-04 12:42:00,61.0,36.5,30.05,SSE,158,2.0,15.0,40,0.00,,,0.00,meteohub,2013-04-04 19:42:00,
2013-04-04 12:47:00,61.0,35.8,30.04,East,95,6.0,15.0,39,0.00,,,0.00,meteohub,2013-04-04 19:47:00,
2013-04-04 12:57:00,60.3,33.8,30.05,West,266,4.0,18.0,37,0.00,,,0.00,meteohub,2013-04-04 19:57:00,
2013-04-04 13:02:00,59.9,33.6,30.04,SE,136,6.0,18.0,37,0.00,,,0.00,meteohub,2013-04-04 20:02:00,
2013-04-04 13:12:00,59.4,33.1,30.04,SE,132,5.0,15.0,37,0.00,,,0.00,meteohub,2013-04-04 20:12:00,
2013-04-04 13:17:00,59.2,34.2,30.04,SW,233,7.0,16.0,39,0.00,,,0.00,meteohub,2013-04-04 20:17:00,
2013-04-04 13:22:00,58.8,34.0,30.04,East,79,5.0,16.0,39,0.00,,,0.00,meteohub,2013-04-04 20:22:00,
2013-04-04 13:27:00,59.4,33.1,30.04,SSE,151,1.0,16.0,37,0.00,,,0.00,meteohub,2013-04-04 20:27:00,
2013-04-04 13:32:00,59.9,30.0,30.04,SSW,193,2.0,16.0,32,0.00,,,0.00,meteohub,2013-04-04 20:32:00,
2013-04-04 13:37:00,60.3,29.5,30.04,ESE,107,6.0,16.0,31,0.00,,,0.00,meteohub,2013-04-04 20:37:00,
2013-04-04 13:42:00,59.7,30.6,30.04,South,190,3.0,14.0,33,0.00,,,0.00,meteohub,2013-04-04 20:42:00,
2013-04-04 13:47:00,59.5,27.3,30.04,ENE,78,4.0,16.0,29,0.00,,,0.00,meteohub,2013-04-04 20:47:00,
2013-04-04 13:57:00,59.4,24.4,30.04,ESE,120,11.0,16.0,26,0.00,,,0.00,meteohub,2013-04-04 20:57:00,
2013-04-04 14:07:00,59.2,24.3,30.04,ESE,120,9.0,13.0,26,0.00,,,0.00,meteohub,2013-04-04 21:07:00,
2013-04-04 14:12:00,59.4,26.2,30.04,ESE,105,6.0,13.0,28,0.00,,,0.00,meteohub,2013-04-04 21:12:00,
2013-04-04 14:17:00,59.2,27.0,30.04,East,79,8.0,16.0,29,0.00,,,0.00,meteohub,2013-04-04 21:17:00,
2013-04-04 14:22:00,59.4,27.9,30.04,ESE,117,8.0,16.0,30,0.00,,,0.00,meteohub,2013-04-04 21:22:00,
2013-04-04 14:27:00,59.0,25.9,30.04,ESE,105,5.0,16.0,28,0.00,,,0.00,meteohub,2013-04-04 21:27:00,
2013-04-04 14:32:00,59.2,27.0,30.03,East,79,11.0,14.0,29,0.00,,,0.00,meteohub,2013-04-04 21:32:00,
2013-04-04 14:42:00,59.5,29.7,30.03,SE,143,2.0,17.0,32,0.00,,,0.00,meteohub,2013-04-04 21:42:00,
2013-04-04 14:52:00,59.4,27.9,30.03,SW,235,9.0,13.0,30,0.00,,,0.00,meteohub,2013-04-04 21:52:00,
2013-04-04 14:57:00,59.5,27.3,30.03,SW,218,3.0,13.0,29,0.00,,,0.00,meteohub,2013-04-04 21:57:00,
2013-04-04 15:02:00,60.3,28.8,30.03,SSE,158,11.0,13.0,30,0.00,,,0.00,meteohub,2013-04-04 22:02:00,
2013-04-04 15:07:00,59.9,30.0,30.03,NNW,345,3.0,13.0,32,0.00,,,0.00,meteohub,2013-04-04 22:07:00,
2013-04-04 15:12:00,59.2,27.7,30.03,SSW,201,9.0,13.0,30,0.00,,,0.00,meteohub,2013-04-04 22:12:00,
2013-04-04 15:17:00,59.2,30.7,30.03,SE,134,4.0,14.0,34,0.00,,,0.00,meteohub,2013-04-04 22:17:00,
2013-04-04 15:22:00,59.4,33.1,30.03,SW,226,2.0,14.0,37,0.00,,,0.00,meteohub,2013-04-04 22:22:00,
2013-04-04 15:32:00,59.5,33.3,30.02,SE,133,4.0,11.0,37,0.00,,,0.00,meteohub,2013-04-04 22:32:00,
2013-04-04 15:37:00,59.5,31.1,30.02,SE,139,1.0,12.0,34,0.00,,,0.00,meteohub,2013-04-04 22:37:00,
2013-04-04 15:42:00,60.1,31.6,30.02,SSW,200,3.0,12.0,34,0.00,,,0.00,meteohub,2013-04-04 22:42:00,
2013-04-04 15:47:00,60.1,33.8,30.02,SSW,201,1.0,9.0,37,0.00,,,0.00,meteohub,2013-04-04 22:47:00,
2013-04-04 15:57:00,59.9,34.2,30.02,SSE,155,3.0,15.0,38,0.00,,,0.00,meteohub,2013-04-04 22:57:00,
2013-04-04 16:02:00,59.5,35.2,30.01,SSW,211,4.0,15.0,40,0.00,,,0.00,meteohub,2013-04-04 23:02:00,
2013-04-04 16:07:00,59.2,34.9,30.01,ENE,76,4.0,6.0,40,0.00,,,0.00,meteohub,2013-04-04 23:07:00,
2013-04-04 16:12:00,59.2,35.4,30.01,SE,142,4.0,6.0,41,0.00,,,0.00,meteohub,2013-04-04 23:12:00,
2013-04-04 16:22:00,58.1,35.1,30.02,ESE,117,2.0,8.0,42,0.00,,,0.00,meteohub,2013-04-04 23:22:00,
2013-04-04 16:32:00,57.7,37.6,30.02,SE,134,3.0,8.0,47,0.00,,,0.00,meteohub,2013-04-04 23:32:00,
2013-04-04 16:37:00,57.4,37.9,30.01,WSW,240,5.0,6.0,48,0.00,,,0.00,meteohub,2013-04-04 23:37:00,
2013-04-04 16:42:00,56.7,39.7,30.01,ESE,108,2.0,7.0,53,0.00,,,0.00,meteohub,2013-04-04 23:42:00,
2013-04-04 16:47:00,56.5,41.4,30.02,SSW,207,2.0,10.0,57,0.00,,,0.00,meteohub,2013-04-04 23:47:00,
2013-04-04 16:57:00,56.1,41.5,30.01,NNW,335,1.0,10.0,58,0.00,,,0.00,meteohub,2013-04-04 23:57:00,
2013-04-04 17:02:00,55.8,41.7,30.01,East,94,0.0,6.0,59,0.00,,,0.00,meteohub,2013-04-05 00:02:00,
2013-04-04 17:07:00,55.2,41.2,30.01,SE,131,2.0,6.0,59,0.00,,,0.00,meteohub,2013-04-05 00:07:00,
2013-04-04 17:12:00,54.9,41.7,30.01,East,89,2.0,6.0,61,0.00,,,0.00,meteohub,2013-04-05 00:12:00,
2013-04-04 17:17:00,54.3,42.1,30.01,West,269,2.0,8.0,63,0.00,,,0.00,meteohub,2013-04-05 00:17:00,
2013-04-04 17:22:00,54.1,42.3,30.01,SW,236,2.0,8.0,64,0.00,,,0.00,meteohub,2013-04-05 00:22:00,
2013-04-04 17:27:00,54.0,42.4,30.01,SSE,165,1.0,9.0,65,0.00,,,0.00,meteohub,2013-04-05 00:27:00,
2013-04-04 17:32:00,53.8,42.6,30.01,SSW,207,2.0,13.0,66,0.00,,,0.00,meteohub,2013-04-05 00:32:00,
2013-04-04 17:42:00,53.4,43.2,30.00,SW,221,2.0,10.0,68,0.00,,,0.00,meteohub,2013-04-05 00:42:00,
2013-04-04 17:52:00,53.4,43.5,30.01,SW,217,7.0,7.0,69,0.00,,,0.00,meteohub,2013-04-05 00:52:00,
2013-04-04 17:57:00,53.2,43.7,30.01,SSE,147,3.0,7.0,70,0.00,,,0.00,meteohub,2013-04-05 00:57:00,
2013-04-04 18:02:00,53.1,43.9,30.00,SSE,152,2.0,9.0,71,0.00,,,0.00,meteohub,2013-04-05 01:02:00,
2013-04-04 18:12:00,52.9,44.1,30.00,ESE,103,1.0,9.0,72,0.00,,,0.00,meteohub,2013-04-05 01:12:00,
2013-04-04 18:17:00,52.9,44.4,30.00,South,180,0.0,6.0,73,0.00,,,0.00,meteohub,2013-04-05 01:17:00,
2013-04-04 18:22:00,52.5,44.1,30.00,ESE,108,4.0,4.0,73,0.00,,,0.00,meteohub,2013-04-05 01:22:00,
2013-04-04 18:27:00,52.2,44.1,30.00,ESE,110,5.0,7.0,74,0.00,,,0.00,meteohub,2013-04-05 01:27:00,
2013-04-04 18:32:00,51.8,44.1,30.00,SW,218,4.0,10.0,75,0.00,,,0.00,meteohub,2013-04-05 01:32:00,
2013-04-04 18:37:00,51.6,43.9,30.00,WSW,240,5.0,10.0,75,0.00,,,0.00,meteohub,2013-04-05 01:37:00,
2013-04-04 18:42:00,51.4,43.7,29.99,ESE,114,0.0,10.0,75,0.00,,,0.00,meteohub,2013-04-05 01:42:00,
2013-04-04 18:47:00,51.3,43.5,29.99,SSW,200,2.0,9.0,75,0.00,,,0.00,meteohub,2013-04-05 01:47:00,
2013-04-04 18:57:00,51.1,42.8,29.99,WSW,238,1.0,5.0,73,0.00,,,0.00,meteohub,2013-04-05 01:57:00,
2013-04-04 19:02:00,50.7,43.7,30.00,WNW,290,2.0,6.0,77,0.00,,,0.00,meteohub,2013-04-05 02:02:00,
2013-04-04 19:07:00,50.4,44.1,30.00,SSE,160,6.0,6.0,79,0.00,,,0.00,meteohub,2013-04-05 02:07:00,
2013-04-04 19:17:00,49.6,44.4,30.00,WNW,287,2.0,8.0,82,0.00,,,0.00,meteohub,2013-04-05 02:17:00,
2013-04-04 19:22:00,49.3,44.4,30.00,SSW,193,2.0,9.0,83,0.00,,,0.00,meteohub,2013-04-05 02:22:00,
2013-04-04 19:27:00,49.1,44.4,29.99,West,262,1.0,13.0,84,0.00,,,0.00,meteohub,2013-04-05 02:27:00,
2013-04-04 19:37:00,48.6,44.6,29.99,West,269,2.0,8.0,86,0.00,,,0.00,meteohub,2013-04-05 02:37:00,
2013-04-04 19:42:00,48.6,44.6,29.99,ESE,114,0.0,12.0,86,0.00,,,0.00,meteohub,2013-04-05 02:42:00,
2013-04-04 19:47:00,48.4,44.8,29.99,SSE,165,2.0,12.0,87,0.00,,,0.00,meteohub,2013-04-05 02:47:00,
2013-04-04 19:52:00,48.4,44.8,29.99,WSW,238,1.0,13.0,87,0.00,,,0.00,meteohub,2013-04-05 02:52:00,
2013-04-04 19:57:00,48.2,44.8,29.99,ESE,120,1.0,13.0,88,0.00,,,0.00,meteohub,2013-04-05 02:57:00,
2013-04-04 20:07:00,48.0,45.0,30.00,WSW,258,6.0,10.0,89,0.00,,,0.00,meteohub,2013-04-05 03:07:00,
2013-04-04 20:12:00,47.8,45.0,30.00,ENE,77,2.0,10.0,90,0.00,,,0.00,meteohub,2013-04-05 03:12:00,
2013-04-04 20:17:00,47.8,45.0,30.00,SSW,205,3.0,7.0,90,0.00,,,0.00,meteohub,2013-04-05 03:17:00,
2013-04-04 20:22:00,47.7,45.1,30.00,SSE,150,4.0,11.0,91,0.00,,,0.00,meteohub,2013-04-05 03:22:00,
2013-04-04 20:27:00,47.5,45.0,30.01,East,84,5.0,11.0,91,0.00,,,0.00,meteohub,2013-04-05 03:27:00,
2013-04-04 20:32:00,47.1,44.6,30.01,East,87,5.0,11.0,91,0.00,,,0.00,meteohub,2013-04-05 03:32:00,
2013-04-04 20:37:00,47.1,44.6,30.01,ENE,68,1.0,11.0,91,0.00,,,0.00,meteohub,2013-04-05 03:37:00,
2013-04-04 20:42:00,46.9,44.2,30.01,ESE,114,0.0,11.0,90,0.00,,,0.00,meteohub,2013-04-05 03:42:00,
2013-04-04 20:47:00,46.9,44.2,30.01,SSE,152,3.0,11.0,90,0.00,,,0.00,meteohub,2013-04-05 03:47:00,
2013-04-04 20:52:00,46.9,44.2,30.02,SSE,166,5.0,8.0,90,0.00,,,0.00,meteohub,2013-04-05 03:52:00,
2013-04-04 21:02:00,46.8,43.3,30.02,SSE,167,3.0,8.0,88,0.00,,,0.00,meteohub,2013-04-05 04:02:00,
2013-04-04 21:07:00,46.8,43.2,30.03,South,169,4.0,10.0,87,0.00,,,0.00,meteohub,2013-04-05 04:07:00,
2013-04-04 21:12:00,46.8,44.1,30.03,SW,214,0.0,10.0,90,0.00,,,0.00,meteohub,2013-04-05 04:12:00,
2013-04-04 21:22:00,46.6,44.4,30.03,ESE,118,10.0,11.0,92,0.00,,,0.00,meteohub,2013-04-05 04:22:00,
2013-04-04 21:27:00,46.4,44.2,30.02,ESE,123,5.0,12.0,92,0.00,,,0.00,meteohub,2013-04-05 04:27:00,
2013-04-04 21:32:00,46.2,43.5,30.02,South,182,6.0,12.0,90,0.00,,,0.00,meteohub,2013-04-05 04:32:00,
2013-04-04 21:42:00,46.8,41.9,30.02,East,98,7.0,13.0,83,0.00,,,0.00,meteohub,2013-04-05 04:42:00,
2013-04-04 21:47:00,46.8,41.5,30.02,SW,231,9.0,17.0,82,0.00,,,0.00,meteohub,2013-04-05 04:47:00,
2013-04-04 21:52:00,46.8,41.0,30.02,South,174,5.0,17.0,80,0.00,,,0.00,meteohub,2013-04-05 04:52:00,
2013-04-04 22:02:00,46.9,40.1,30.02,SE,138,4.0,14.0,77,0.00,,,0.00,meteohub,2013-04-05 05:02:00,
2013-04-04 22:07:00,46.9,40.1,30.02,East,101,6.0,13.0,77,0.00,,,0.00,meteohub,2013-04-05 05:07:00,
2013-04-04 22:12:00,46.9,39.4,30.03,ESE,108,4.0,13.0,75,0.00,,,0.00,meteohub,2013-04-05 05:12:00,
2013-04-04 22:17:00,46.8,39.2,30.03,SSE,158,0.0,13.0,75,0.00,,,0.00,meteohub,2013-04-05 05:17:00,
2013-04-04 22:22:00,46.8,38.8,30.03,SSE,163,2.0,12.0,74,0.00,,,0.00,meteohub,2013-04-05 05:22:00,
2013-04-04 22:27:00,46.6,39.0,30.04,SE,136,2.0,11.0,75,0.00,,,0.00,meteohub,2013-04-05 05:27:00,
2013-04-04 22:32:00,46.2,38.7,30.04,East,98,5.0,7.0,75,0.00,,,0.00,meteohub,2013-04-05 05:32:00,
2013-04-04 22:37:00,46.2,38.5,30.03,SSW,203,2.0,7.0,74,0.00,,,0.00,meteohub,2013-04-05 05:37:00,
2013-04-04 22:42:00,46.0,38.3,30.03,ESE,108,3.0,7.0,74,0.00,,,0.00,meteohub,2013-04-05 05:42:00,
2013-04-04 22:47:00,46.0,38.3,30.03,SSW,197,1.0,7.0,74,0.00,,,0.00,meteohub,2013-04-05 05:47:00,
2013-04-04 22:57:00,46.2,37.8,30.03,ESE,103,4.0,10.0,72,0.00,,,0.00,meteohub,2013-04-05 05:57:00,
2013-04-04 23:02:00,46.4,37.9,30.03,East,101,2.0,10.0,72,0.00,,,0.00,meteohub,2013-04-05 06:02:00,
2013-04-04 23:07:00,46.2,37.8,30.03,SE,141,3.0,9.0,72,0.00,,,0.00,meteohub,2013-04-05 06:07:00,
2013-04-04 23:12:00,46.2,37.8,30.04,ESE,113,0.0,9.0,72,0.00,,,0.00,meteohub,2013-04-05 06:12:00,
2013-04-04 23:22:00,46.2,37.8,30.03,South,174,3.0,10.0,72,0.00,,,0.00,meteohub,2013-04-05 06:22:00,
2013-04-04 23:32:00,46.0,37.9,30.03,SE,131,5.0,10.0,73,0.00,,,0.00,meteohub,2013-04-05 06:32:00,
2013-04-04 23:37:00,46.0,37.9,30.04,SE,143,3.0,10.0,73,0.00,,,0.00,meteohub,2013-04-05 06:37:00,
2013-04-04 23:42:00,45.9,37.8,30.04,SSE,149,2.0,9.0,73,0.00,,,0.00,meteohub,2013-04-05 06:42:00,
2013-04-04 23:47:00,45.7,37.6,30.03,SSW,195,1.0,9.0,73,0.00,,,0.00,meteohub,2013-04-05 06:47:00,
2013-04-04 23:52:00,45.7,38.5,30.03,SE,136,5.0,8.0,76,0.00,,,0.00,meteohub,2013-04-05 06:52:00,
2013-04-04 23:57:00,45.7,38.8,30.03,ESE,114,1.0,7.0,77,0.00,,,0.00,meteohub,2013-04-05 06:57:00,